sensor_id;sensor_type;location;lat;lon;timestamp;temperature;humidity
8338;DHT22;4206;48.634;9.516;2023-03-12T00:01:59;-3.00;99.90
8338;DHT22;4206;48.634;9.516;2023-03-12T00:04:27;-3.00;99.90
8338;DHT22;4206;48.634;9.516;2023-03-12T00:06:54;-3.00;99.90
8338;DHT22;4206;48.634;9.516;2023-03-12T00:09:20;-3.10;99.90
8338;DHT22;4206;48.634;9.516;2023-03-12T00:11:48;-3.00;99.90
8338;DHT22;4206;48.634;9.516;2023-03-12T00:14:16;-3.00;99.90
8338;DHT22;4206;48.634;9.516;2023-03-12T00:16:43;-3.10;99.90
8338;DHT22;4206;48.634;9.516;2023-03-12T00:19:11;-3.10;99.90
8338;DHT22;4206;48.634;9.516;2023-03-12T00:21:38;-3.10;99.90
8338;DHT22;4206;48.634;9.516;2023-03-12T00:24:06;-3.20;99.90
8338;DHT22;4206;48.634;9.516;2023-03-12T00:26:33;-3.20;99.90
8338;DHT22;4206;48.634;9.516;2023-03-12T00:29:00;-3.20;99.90
8338;DHT22;4206;48.634;9.516;2023-03-12T00:31:29;-3.20;99.90
8338;DHT22;4206;48.634;9.516;2023-03-12T00:33:59;-3.20;99.90
8338;DHT22;4206;48.634;9.516;2023-03-12T00:36:28;-3.20;99.90
8338;DHT22;4206;48.634;9.516;2023-03-12T00:38:56;-3.20;99.90
8338;DHT22;4206;48.634;9.516;2023-03-12T00:41:24;-3.30;99.90
8338;DHT22;4206;48.634;9.516;2023-03-12T00:43:52;-3.40;99.90
8338;DHT22;4206;48.634;9.516;2023-03-12T00:46:19;-3.30;99.90
8338;DHT22;4206;48.634;9.516;2023-03-12T00:48:46;-3.40;99.90
8338;DHT22;4206;48.634;9.516;2023-03-12T00:51:14;-3.40;99.90
8338;DHT22;4206;48.634;9.516;2023-03-12T00:53:41;-3.40;99.90
8338;DHT22;4206;48.634;9.516;2023-03-12T00:56:08;-3.50;99.90
8338;DHT22;4206;48.634;9.516;2023-03-12T00:58:34;-3.50;99.90
8338;DHT22;4206;48.634;9.516;2023-03-12T01:01:01;-3.50;99.90
8338;DHT22;4206;48.634;9.516;2023-03-12T01:03:28;-3.60;99.90
8338;DHT22;4206;48.634;9.516;2023-03-12T01:05:55;-3.50;99.90
8338;DHT22;4206;48.634;9.516;2023-03-12T01:08:23;-3.60;99.90
8338;DHT22;4206;48.634;9.516;2023-03-12T01:10:50;-3.60;99.90
8338;DHT22;4206;48.634;9.516;2023-03-12T01:13:17;-3.60;99.90
8338;DHT22;4206;48.634;9.516;2023-03-12T01:15:44;-3.60;99.90
8338;DHT22;4206;48.634;9.516;2023-03-12T01:18:11;-3.60;99.90
8338;DHT22;4206;48.634;9.516;2023-03-12T01:20:38;-3.60;99.90
8338;DHT22;4206;48.634;9.516;2023-03-12T01:23:06;-3.60;99.90
8338;DHT22;4206;48.634;9.516;2023-03-12T01:25:33;-3.50;99.90
8338;DHT22;4206;48.634;9.516;2023-03-12T01:28:00;-3.50;99.90
8338;DHT22;4206;48.634;9.516;2023-03-12T01:30:28;-3.50;99.90
8338;DHT22;4206;48.634;9.516;2023-03-12T01:32:56;-3.50;99.90
8338;DHT22;4206;48.634;9.516;2023-03-12T01:35:23;-3.50;99.90
8338;DHT22;4206;48.634;9.516;2023-03-12T01:37:50;-3.40;99.90
8338;DHT22;4206;48.634;9.516;2023-03-12T01:40:20;-3.40;99.90
8338;DHT22;4206;48.634;9.516;2023-03-12T01:42:53;-3.30;99.90
8338;DHT22;4206;48.634;9.516;2023-03-12T01:48:19;-3.30;99.90
8338;DHT22;4206;48.634;9.516;2023-03-12T01:50:46;-3.20;99.90
8338;DHT22;4206;48.634;9.516;2023-03-12T01:53:13;-3.20;99.90
8338;DHT22;4206;48.634;9.516;2023-03-12T01:55:40;-3.20;99.90
8338;DHT22;4206;48.634;9.516;2023-03-12T01:58:07;-3.10;99.90
8338;DHT22;4206;48.634;9.516;2023-03-12T02:00:35;-3.10;99.90
8338;DHT22;4206;48.634;9.516;2023-03-12T02:03:06;-3.00;99.90
8338;DHT22;4206;48.634;9.516;2023-03-12T02:08:11;-2.90;99.90
8338;DHT22;4206;48.634;9.516;2023-03-12T02:10:38;-2.90;99.90
8338;DHT22;4206;48.634;9.516;2023-03-12T02:13:05;-2.80;99.90
8338;DHT22;4206;48.634;9.516;2023-03-12T02:15:34;-2.80;99.90
8338;DHT22;4206;48.634;9.516;2023-03-12T02:18:05;-2.80;99.90
8338;DHT22;4206;48.634;9.516;2023-03-12T02:20:36;-2.80;99.90
8338;DHT22;4206;48.634;9.516;2023-03-12T02:23:24;-2.80;99.90
8338;DHT22;4206;48.634;9.516;2023-03-12T02:25:53;-2.70;99.90
8338;DHT22;4206;48.634;9.516;2023-03-12T02:28:25;-2.70;99.90
8338;DHT22;4206;48.634;9.516;2023-03-12T02:30:57;-2.60;99.90
8338;DHT22;4206;48.634;9.516;2023-03-12T02:33:24;-2.60;99.90
8338;DHT22;4206;48.634;9.516;2023-03-12T02:35:52;-2.50;99.90
8338;DHT22;4206;48.634;9.516;2023-03-12T02:41:00;-2.40;99.90
8338;DHT22;4206;48.634;9.516;2023-03-12T02:43:29;-2.40;99.90
8338;DHT22;4206;48.634;9.516;2023-03-12T02:45:56;-2.30;99.90
8338;DHT22;4206;48.634;9.516;2023-03-12T02:48:23;-2.30;99.90
8338;DHT22;4206;48.634;9.516;2023-03-12T02:50:50;-2.30;99.90
8338;DHT22;4206;48.634;9.516;2023-03-12T02:53:16;-2.20;99.90
8338;DHT22;4206;48.634;9.516;2023-03-12T02:55:43;-2.20;99.90
8338;DHT22;4206;48.634;9.516;2023-03-12T02:58:10;-2.20;99.90
8338;DHT22;4206;48.634;9.516;2023-03-12T03:00:37;-2.10;99.90
8338;DHT22;4206;48.634;9.516;2023-03-12T03:03:04;-2.10;99.90
8338;DHT22;4206;48.634;9.516;2023-03-12T03:05:31;-2.00;99.90
8338;DHT22;4206;48.634;9.516;2023-03-12T03:07:57;-2.00;99.90
8338;DHT22;4206;48.634;9.516;2023-03-12T03:10:24;-2.00;99.90
8338;DHT22;4206;48.634;9.516;2023-03-12T03:12:51;-1.90;99.90
8338;DHT22;4206;48.634;9.516;2023-03-12T03:15:18;-1.90;99.90
8338;DHT22;4206;48.634;9.516;2023-03-12T03:17:45;-1.90;99.90
8338;DHT22;4206;48.634;9.516;2023-03-12T03:20:12;-1.90;99.90
8338;DHT22;4206;48.634;9.516;2023-03-12T03:22:39;-1.80;99.90
8338;DHT22;4206;48.634;9.516;2023-03-12T03:25:08;-1.80;99.90
8338;DHT22;4206;48.634;9.516;2023-03-12T03:27:35;-1.80;99.90
8338;DHT22;4206;48.634;9.516;2023-03-12T03:30:02;-1.80;99.90
8338;DHT22;4206;48.634;9.516;2023-03-12T03:32:29;-1.80;99.90
8338;DHT22;4206;48.634;9.516;2023-03-12T03:34:56;-1.80;99.90
8338;DHT22;4206;48.634;9.516;2023-03-12T03:37:23;-1.70;99.90
8338;DHT22;4206;48.634;9.516;2023-03-12T03:39:50;-1.70;99.90
8338;DHT22;4206;48.634;9.516;2023-03-12T03:42:17;-1.80;99.90
8338;DHT22;4206;48.634;9.516;2023-03-12T03:44:44;-1.80;99.90
8338;DHT22;4206;48.634;9.516;2023-03-12T03:47:10;-1.80;99.90
8338;DHT22;4206;48.634;9.516;2023-03-12T03:49:37;-1.80;99.90
8338;DHT22;4206;48.634;9.516;2023-03-12T03:52:04;-1.80;99.90
8338;DHT22;4206;48.634;9.516;2023-03-12T03:54:31;-1.80;99.90
8338;DHT22;4206;48.634;9.516;2023-03-12T03:56:59;-1.80;99.90
8338;DHT22;4206;48.634;9.516;2023-03-12T03:59:26;-1.80;99.90
8338;DHT22;4206;48.634;9.516;2023-03-12T05:00:04;-1.00;99.90
8338;DHT22;4206;48.634;9.516;2023-03-12T05:02:36;-1.00;99.90
8338;DHT22;4206;48.634;9.516;2023-03-12T05:05:03;-1.00;99.90
8338;DHT22;4206;48.634;9.516;2023-03-12T05:07:30;-0.90;99.90
8338;DHT22;4206;48.634;9.516;2023-03-12T05:09:57;-0.90;99.90
8338;DHT22;4206;48.634;9.516;2023-03-12T05:12:24;-0.80;99.90
8338;DHT22;4206;48.634;9.516;2023-03-12T05:14:51;-0.80;99.90
8338;DHT22;4206;48.634;9.516;2023-03-12T05:17:18;-0.80;99.90
8338;DHT22;4206;48.634;9.516;2023-03-12T05:19:45;-0.70;99.90
8338;DHT22;4206;48.634;9.516;2023-03-12T05:22:12;-0.70;99.90
8338;DHT22;4206;48.634;9.516;2023-03-12T05:24:39;-0.60;99.90
8338;DHT22;4206;48.634;9.516;2023-03-12T05:27:06;-0.70;99.90
8338;DHT22;4206;48.634;9.516;2023-03-12T05:29:34;-0.60;99.90
8338;DHT22;4206;48.634;9.516;2023-03-12T05:32:02;-0.60;99.90
8338;DHT22;4206;48.634;9.516;2023-03-12T05:34:29;-0.50;99.90
8338;DHT22;4206;48.634;9.516;2023-03-12T05:36:57;-0.40;99.90
8338;DHT22;4206;48.634;9.516;2023-03-12T05:39:24;-0.40;99.90
8338;DHT22;4206;48.634;9.516;2023-03-12T05:41:52;-0.40;99.90
8338;DHT22;4206;48.634;9.516;2023-03-12T05:44:23;-0.40;99.90
8338;DHT22;4206;48.634;9.516;2023-03-12T05:46:51;-0.40;99.90
8338;DHT22;4206;48.634;9.516;2023-03-12T05:49:20;-0.40;99.90
8338;DHT22;4206;48.634;9.516;2023-03-12T05:51:49;-0.30;99.90
8338;DHT22;4206;48.634;9.516;2023-03-12T05:54:16;-0.30;99.90
8338;DHT22;4206;48.634;9.516;2023-03-12T05:56:44;-0.30;99.90
8338;DHT22;4206;48.634;9.516;2023-03-12T05:59:14;-0.30;99.90
8338;DHT22;4206;48.634;9.516;2023-03-12T06:01:42;-0.40;99.90
8338;DHT22;4206;48.634;9.516;2023-03-12T06:04:08;-0.30;99.90
8338;DHT22;4206;48.634;9.516;2023-03-12T06:06:36;-0.30;99.90
8338;DHT22;4206;48.634;9.516;2023-03-12T06:09:03;-0.20;99.90
8338;DHT22;4206;48.634;9.516;2023-03-12T06:11:32;-0.10;99.90
8338;DHT22;4206;48.634;9.516;2023-03-12T06:13:59;0.00;99.90
8338;DHT22;4206;48.634;9.516;2023-03-12T06:16:27;0.00;99.90
8338;DHT22;4206;48.634;9.516;2023-03-12T06:18:57;0.00;99.90
8338;DHT22;4206;48.634;9.516;2023-03-12T06:21:26;0.00;99.90
8338;DHT22;4206;48.634;9.516;2023-03-12T06:23:54;0.00;99.90
8338;DHT22;4206;48.634;9.516;2023-03-12T06:26:21;0.10;99.90
8338;DHT22;4206;48.634;9.516;2023-03-12T06:28:49;0.10;99.90
8338;DHT22;4206;48.634;9.516;2023-03-12T06:31:17;0.20;99.90
8338;DHT22;4206;48.634;9.516;2023-03-12T06:33:44;0.20;99.90
8338;DHT22;4206;48.634;9.516;2023-03-12T06:36:11;0.30;99.90
8338;DHT22;4206;48.634;9.516;2023-03-12T06:38:39;0.30;99.90
8338;DHT22;4206;48.634;9.516;2023-03-12T06:41:09;0.30;99.90
8338;DHT22;4206;48.634;9.516;2023-03-12T06:43:37;0.40;99.90
8338;DHT22;4206;48.634;9.516;2023-03-12T06:46:06;0.40;99.90
8338;DHT22;4206;48.634;9.516;2023-03-12T06:48:35;0.40;99.90
8338;DHT22;4206;48.634;9.516;2023-03-12T06:51:03;0.40;99.90
8338;DHT22;4206;48.634;9.516;2023-03-12T06:53:31;0.40;99.90
8338;DHT22;4206;48.634;9.516;2023-03-12T06:55:58;0.50;99.90
8338;DHT22;4206;48.634;9.516;2023-03-12T06:58:25;0.60;99.90
8338;DHT22;4206;48.634;9.516;2023-03-12T07:00:54;0.70;99.90
8338;DHT22;4206;48.634;9.516;2023-03-12T07:03:21;0.90;99.90
8338;DHT22;4206;48.634;9.516;2023-03-12T07:05:49;0.90;99.90
8338;DHT22;4206;48.634;9.516;2023-03-12T07:08:17;1.00;99.90
8338;DHT22;4206;48.634;9.516;2023-03-12T07:10:44;1.20;99.90
8338;DHT22;4206;48.634;9.516;2023-03-12T07:13:12;1.30;99.90
8338;DHT22;4206;48.634;9.516;2023-03-12T07:15:39;1.40;99.90
8338;DHT22;4206;48.634;9.516;2023-03-12T07:18:09;1.40;99.90
8338;DHT22;4206;48.634;9.516;2023-03-12T07:20:39;1.30;99.90
8338;DHT22;4206;48.634;9.516;2023-03-12T07:23:06;1.40;99.90
8338;DHT22;4206;48.634;9.516;2023-03-12T07:25:35;1.50;99.90
8338;DHT22;4206;48.634;9.516;2023-03-12T07:28:03;1.50;99.90
8338;DHT22;4206;48.634;9.516;2023-03-12T07:30:30;1.60;99.90
8338;DHT22;4206;48.634;9.516;2023-03-12T07:33:00;1.60;99.90
8338;DHT22;4206;48.634;9.516;2023-03-12T07:35:28;1.80;99.90
8338;DHT22;4206;48.634;9.516;2023-03-12T07:37:56;1.80;99.90
8338;DHT22;4206;48.634;9.516;2023-03-12T07:40:23;2.00;99.90
8338;DHT22;4206;48.634;9.516;2023-03-12T07:42:50;2.10;99.90
8338;DHT22;4206;48.634;9.516;2023-03-12T07:45:18;2.10;99.90
8338;DHT22;4206;48.634;9.516;2023-03-12T07:47:46;2.20;99.90
8338;DHT22;4206;48.634;9.516;2023-03-12T07:50:14;2.20;99.90
8338;DHT22;4206;48.634;9.516;2023-03-12T07:52:42;2.10;99.90
8338;DHT22;4206;48.634;9.516;2023-03-12T07:55:10;2.20;99.90
8338;DHT22;4206;48.634;9.516;2023-03-12T07:57:37;2.20;99.90
8338;DHT22;4206;48.634;9.516;2023-03-12T08:00:05;2.40;99.90
8338;DHT22;4206;48.634;9.516;2023-03-12T08:02:33;2.50;99.90
8338;DHT22;4206;48.634;9.516;2023-03-12T08:05:01;2.70;99.90
8338;DHT22;4206;48.634;9.516;2023-03-12T08:07:29;2.80;99.90
8338;DHT22;4206;48.634;9.516;2023-03-12T08:09:58;2.90;99.90
8338;DHT22;4206;48.634;9.516;2023-03-12T08:12:26;2.80;99.90
8338;DHT22;4206;48.634;9.516;2023-03-12T08:14:53;2.90;99.90
8338;DHT22;4206;48.634;9.516;2023-03-12T08:17:21;3.10;99.90
8338;DHT22;4206;48.634;9.516;2023-03-12T08:19:48;3.20;99.90
8338;DHT22;4206;48.634;9.516;2023-03-12T08:22:14;3.40;99.90
8338;DHT22;4206;48.634;9.516;2023-03-12T08:24:41;3.60;99.90
8338;DHT22;4206;48.634;9.516;2023-03-12T08:27:08;3.80;99.90
8338;DHT22;4206;48.634;9.516;2023-03-12T08:29:38;3.90;99.90
8338;DHT22;4206;48.634;9.516;2023-03-12T08:32:06;4.00;99.90
8338;DHT22;4206;48.634;9.516;2023-03-12T08:34:34;4.10;99.90
8338;DHT22;4206;48.634;9.516;2023-03-12T08:37:01;4.30;99.90
8338;DHT22;4206;48.634;9.516;2023-03-12T08:39:28;4.50;99.90
8338;DHT22;4206;48.634;9.516;2023-03-12T08:41:55;4.90;99.90
8338;DHT22;4206;48.634;9.516;2023-03-12T08:44:23;5.00;99.90
8338;DHT22;4206;48.634;9.516;2023-03-12T08:46:50;5.20;99.90
8338;DHT22;4206;48.634;9.516;2023-03-12T08:49:18;5.30;99.90
8338;DHT22;4206;48.634;9.516;2023-03-12T08:51:45;5.20;99.90
8338;DHT22;4206;48.634;9.516;2023-03-12T08:54:12;5.30;99.90
8338;DHT22;4206;48.634;9.516;2023-03-12T08:56:39;5.40;99.90
8338;DHT22;4206;48.634;9.516;2023-03-12T08:59:11;5.20;99.90
8338;DHT22;4206;48.634;9.516;2023-03-12T09:01:39;5.10;99.90
8338;DHT22;4206;48.634;9.516;2023-03-12T09:04:09;5.20;99.90
8338;DHT22;4206;48.634;9.516;2023-03-12T09:06:37;5.20;99.90
8338;DHT22;4206;48.634;9.516;2023-03-12T09:09:04;5.30;99.90
8338;DHT22;4206;48.634;9.516;2023-03-12T09:11:32;5.30;99.90
8338;DHT22;4206;48.634;9.516;2023-03-12T09:14:00;5.40;99.90
8338;DHT22;4206;48.634;9.516;2023-03-12T09:16:48;5.50;99.90
8338;DHT22;4206;48.634;9.516;2023-03-12T09:19:15;5.80;99.90
8338;DHT22;4206;48.634;9.516;2023-03-12T09:21:42;6.10;99.90
8338;DHT22;4206;48.634;9.516;2023-03-12T09:24:10;6.40;99.90
8338;DHT22;4206;48.634;9.516;2023-03-12T09:26:37;6.40;99.90
8338;DHT22;4206;48.634;9.516;2023-03-12T09:29:04;6.50;99.90
8338;DHT22;4206;48.634;9.516;2023-03-12T09:31:31;6.40;99.90
8338;DHT22;4206;48.634;9.516;2023-03-12T09:33:58;6.40;99.90
8338;DHT22;4206;48.634;9.516;2023-03-12T09:36:25;6.30;99.90
8338;DHT22;4206;48.634;9.516;2023-03-12T09:38:53;6.20;99.90
8338;DHT22;4206;48.634;9.516;2023-03-12T09:41:28;6.20;99.90
8338;DHT22;4206;48.634;9.516;2023-03-12T09:46:47;6.20;99.90
8338;DHT22;4206;48.634;9.516;2023-03-12T09:49:22;6.00;99.90
8338;DHT22;4206;48.634;9.516;2023-03-12T09:51:54;5.90;99.90
8338;DHT22;4206;48.634;9.516;2023-03-12T09:54:26;5.90;99.90
8338;DHT22;4206;48.634;9.516;2023-03-12T09:56:57;6.00;99.90
8338;DHT22;4206;48.634;9.516;2023-03-12T09:59:26;6.00;99.90
8338;DHT22;4206;48.634;9.516;2023-03-12T10:01:56;5.90;99.90
8338;DHT22;4206;48.634;9.516;2023-03-12T10:04:27;6.00;99.90
8338;DHT22;4206;48.634;9.516;2023-03-12T10:07:03;6.20;99.90
8338;DHT22;4206;48.634;9.516;2023-03-12T10:09:52;6.30;99.90
8338;DHT22;4206;48.634;9.516;2023-03-12T10:18:10;6.40;99.90
8338;DHT22;4206;48.634;9.516;2023-03-12T10:20:59;6.60;99.90
8338;DHT22;4206;48.634;9.516;2023-03-12T10:26:23;6.90;99.90
8338;DHT22;4206;48.634;9.516;2023-03-12T10:29:02;7.10;99.90
8338;DHT22;4206;48.634;9.516;2023-03-12T10:31:40;7.10;99.90
8338;DHT22;4206;48.634;9.516;2023-03-12T10:34:18;7.20;99.90
8338;DHT22;4206;48.634;9.516;2023-03-12T10:36:46;7.40;99.90
8338;DHT22;4206;48.634;9.516;2023-03-12T10:39:16;7.50;99.90
8338;DHT22;4206;48.634;9.516;2023-03-12T10:41:45;7.70;99.90
8338;DHT22;4206;48.634;9.516;2023-03-12T10:44:22;8.10;99.90
8338;DHT22;4206;48.634;9.516;2023-03-12T10:49:25;9.40;99.90
8338;DHT22;4206;48.634;9.516;2023-03-12T10:54:22;10.00;99.90
8338;DHT22;4206;48.634;9.516;2023-03-12T10:56:52;10.10;99.90
8338;DHT22;4206;48.634;9.516;2023-03-12T10:59:20;10.10;99.90
8338;DHT22;4206;48.634;9.516;2023-03-12T11:01:50;10.20;99.90
8338;DHT22;4206;48.634;9.516;2023-03-12T11:04:21;10.00;99.90
8338;DHT22;4206;48.634;9.516;2023-03-12T11:09:38;10.10;99.90
8338;DHT22;4206;48.634;9.516;2023-03-12T11:12:23;10.20;99.90
8338;DHT22;4206;48.634;9.516;2023-03-12T11:14:50;10.30;99.90
8338;DHT22;4206;48.634;9.516;2023-03-12T11:17:23;10.50;99.90
8338;DHT22;4206;48.634;9.516;2023-03-12T11:19:50;10.50;99.90
8338;DHT22;4206;48.634;9.516;2023-03-12T11:22:33;10.70;99.90
8338;DHT22;4206;48.634;9.516;2023-03-12T11:25:03;11.10;99.90
8338;DHT22;4206;48.634;9.516;2023-03-12T11:27:40;11.50;99.90
8338;DHT22;4206;48.634;9.516;2023-03-12T11:30:13;11.80;99.90
8338;DHT22;4206;48.634;9.516;2023-03-12T11:32:44;11.90;99.90
8338;DHT22;4206;48.634;9.516;2023-03-12T11:35:14;12.00;99.90
8338;DHT22;4206;48.634;9.516;2023-03-12T11:43:33;11.40;99.90
8338;DHT22;4206;48.634;9.516;2023-03-12T11:46:20;11.40;99.90
8338;DHT22;4206;48.634;9.516;2023-03-12T11:51:30;11.60;99.90
8338;DHT22;4206;48.634;9.516;2023-03-12T11:56:46;11.40;99.90
8338;DHT22;4206;48.634;9.516;2023-03-12T11:59:34;11.30;99.90
8338;DHT22;4206;48.634;9.516;2023-03-12T12:07:38;11.20;99.90
8338;DHT22;4206;48.634;9.516;2023-03-12T12:13:09;11.30;99.90
8338;DHT22;4206;48.634;9.516;2023-03-12T12:18:45;11.20;99.90
8338;DHT22;4206;48.634;9.516;2023-03-12T12:24:03;11.50;99.90
8338;DHT22;4206;48.634;9.516;2023-03-12T12:37:57;11.60;99.90
8338;DHT22;4206;48.634;9.516;2023-03-12T12:40:28;11.70;99.90
8338;DHT22;4206;48.634;9.516;2023-03-12T12:45:28;11.90;99.90
8338;DHT22;4206;48.634;9.516;2023-03-12T12:48:05;11.80;99.90
8338;DHT22;4206;48.634;9.516;2023-03-12T12:50:37;11.70;99.90
8338;DHT22;4206;48.634;9.516;2023-03-12T12:53:22;11.80;99.90
8338;DHT22;4206;48.634;9.516;2023-03-12T12:55:58;11.80;99.90
8338;DHT22;4206;48.634;9.516;2023-03-12T13:01:25;11.60;99.90
8338;DHT22;4206;48.634;9.516;2023-03-12T13:04:00;11.60;99.90
8338;DHT22;4206;48.634;9.516;2023-03-12T13:07:00;11.50;99.90
8338;DHT22;4206;48.634;9.516;2023-03-12T13:09:44;11.60;99.90
8338;DHT22;4206;48.634;9.516;2023-03-12T13:12:12;11.80;99.90
8338;DHT22;4206;48.634;9.516;2023-03-12T13:14:41;12.00;99.90
8338;DHT22;4206;48.634;9.516;2023-03-12T13:20:12;12.20;99.90
8338;DHT22;4206;48.634;9.516;2023-03-12T13:28:30;11.70;99.90
8338;DHT22;4206;48.634;9.516;2023-03-12T13:33:46;11.60;99.90
8338;DHT22;4206;48.634;9.516;2023-03-12T13:38:58;11.60;99.90
8338;DHT22;4206;48.634;9.516;2023-03-12T13:41:41;11.50;99.90
8338;DHT22;4206;48.634;9.516;2023-03-12T13:47:01;11.80;99.90
8338;DHT22;4206;48.634;9.516;2023-03-12T13:49:40;11.60;99.90
8338;DHT22;4206;48.634;9.516;2023-03-12T13:57:40;12.00;99.90
8338;DHT22;4206;48.634;9.516;2023-03-12T14:00:26;11.90;99.90
8338;DHT22;4206;48.634;9.516;2023-03-12T14:02:58;11.70;99.90
8338;DHT22;4206;48.634;9.516;2023-03-12T14:05:26;11.80;99.90
8338;DHT22;4206;48.634;9.516;2023-03-12T14:08:08;11.60;99.90
8338;DHT22;4206;48.634;9.516;2023-03-12T14:10:55;11.70;99.90
8338;DHT22;4206;48.634;9.516;2023-03-12T14:16:38;11.60;99.90
8338;DHT22;4206;48.634;9.516;2023-03-12T14:19:03;11.60;99.90
8338;DHT22;4206;48.634;9.516;2023-03-12T14:21:34;11.60;99.90
8338;DHT22;4206;48.634;9.516;2023-03-12T14:24:04;11.60;99.90
8338;DHT22;4206;48.634;9.516;2023-03-12T14:26:35;11.70;99.90
8338;DHT22;4206;48.634;9.516;2023-03-12T14:29:09;11.90;99.90
8338;DHT22;4206;48.634;9.516;2023-03-12T14:31:41;12.10;99.90
8338;DHT22;4206;48.634;9.516;2023-03-12T14:34:17;12.20;99.90
8338;DHT22;4206;48.634;9.516;2023-03-12T14:36:48;12.30;99.90
8338;DHT22;4206;48.634;9.516;2023-03-12T14:39:24;12.70;99.90
8338;DHT22;4206;48.634;9.516;2023-03-12T14:41:58;12.90;99.90
8338;DHT22;4206;48.634;9.516;2023-03-12T14:44:28;13.00;99.90
8338;DHT22;4206;48.634;9.516;2023-03-12T14:47:00;12.70;99.90
8338;DHT22;4206;48.634;9.516;2023-03-12T14:49:29;12.90;99.90
8338;DHT22;4206;48.634;9.516;2023-03-12T14:51:56;13.20;99.90
8338;DHT22;4206;48.634;9.516;2023-03-12T14:54:26;13.10;99.90
8338;DHT22;4206;48.634;9.516;2023-03-12T14:56:53;13.30;99.90
8338;DHT22;4206;48.634;9.516;2023-03-12T14:59:25;13.40;99.90
8338;DHT22;4206;48.634;9.516;2023-03-12T15:01:59;13.20;99.90
8338;DHT22;4206;48.634;9.516;2023-03-12T15:04:27;13.10;99.90
8338;DHT22;4206;48.634;9.516;2023-03-12T15:06:57;13.00;99.90
8338;DHT22;4206;48.634;9.516;2023-03-12T15:09:26;12.90;99.90
8338;DHT22;4206;48.634;9.516;2023-03-12T15:11:58;12.70;99.90
8338;DHT22;4206;48.634;9.516;2023-03-12T15:14:29;12.70;99.90
8338;DHT22;4206;48.634;9.516;2023-03-12T15:16:58;12.50;99.90
8338;DHT22;4206;48.634;9.516;2023-03-12T15:19:31;12.50;99.90
8338;DHT22;4206;48.634;9.516;2023-03-12T15:21:58;12.30;99.90
8338;DHT22;4206;48.634;9.516;2023-03-12T15:24:28;12.30;99.90
8338;DHT22;4206;48.634;9.516;2023-03-12T15:26:56;12.20;99.90
8338;DHT22;4206;48.634;9.516;2023-03-12T15:29:26;12.20;99.90
8338;DHT22;4206;48.634;9.516;2023-03-12T15:31:56;12.10;99.90
8338;DHT22;4206;48.634;9.516;2023-03-12T15:36:59;12.10;99.90
8338;DHT22;4206;48.634;9.516;2023-03-12T15:39:31;11.80;99.90
8338;DHT22;4206;48.634;9.516;2023-03-12T15:42:01;11.80;99.90
8338;DHT22;4206;48.634;9.516;2023-03-12T15:44:43;11.70;99.90
8338;DHT22;4206;48.634;9.516;2023-03-12T15:47:14;11.50;99.90
8338;DHT22;4206;48.634;9.516;2023-03-12T15:49:42;11.40;99.90
8338;DHT22;4206;48.634;9.516;2023-03-12T15:52:26;11.40;99.90
8338;DHT22;4206;48.634;9.516;2023-03-12T16:05:17;11.20;99.90
8338;DHT22;4206;48.634;9.516;2023-03-12T16:07:44;11.20;99.90
8338;DHT22;4206;48.634;9.516;2023-03-12T16:10:14;11.20;99.90
8338;DHT22;4206;48.634;9.516;2023-03-12T16:12:43;11.20;99.90
8338;DHT22;4206;48.634;9.516;2023-03-12T16:15:27;11.20;99.90
8338;DHT22;4206;48.634;9.516;2023-03-12T16:17:55;11.10;99.90
8338;DHT22;4206;48.634;9.516;2023-03-12T16:20:22;11.10;99.90
8338;DHT22;4206;48.634;9.516;2023-03-12T16:22:49;11.00;99.90
8338;DHT22;4206;48.634;9.516;2023-03-12T16:25:16;11.00;99.90
8338;DHT22;4206;48.634;9.516;2023-03-12T16:27:48;11.10;99.90
8338;DHT22;4206;48.634;9.516;2023-03-12T16:30:21;11.00;99.90
8338;DHT22;4206;48.634;9.516;2023-03-12T16:32:49;10.90;99.90
8338;DHT22;4206;48.634;9.516;2023-03-12T16:35:17;10.90;99.90
8338;DHT22;4206;48.634;9.516;2023-03-12T16:37:44;10.80;99.90
8338;DHT22;4206;48.634;9.516;2023-03-12T16:40:14;10.80;99.90
8338;DHT22;4206;48.634;9.516;2023-03-12T16:42:57;10.80;99.90
8338;DHT22;4206;48.634;9.516;2023-03-12T16:45:29;10.80;99.90
8338;DHT22;4206;48.634;9.516;2023-03-12T16:47:58;10.80;99.90
8338;DHT22;4206;48.634;9.516;2023-03-12T16:50:26;10.70;99.90
8338;DHT22;4206;48.634;9.516;2023-03-12T16:52:54;10.70;99.90
8338;DHT22;4206;48.634;9.516;2023-03-12T16:55:24;10.70;99.90
8338;DHT22;4206;48.634;9.516;2023-03-12T16:57:55;10.60;99.90
8338;DHT22;4206;48.634;9.516;2023-03-12T17:00:26;10.60;99.90
8338;DHT22;4206;48.634;9.516;2023-03-12T17:02:54;10.50;99.90
8338;DHT22;4206;48.634;9.516;2023-03-12T17:05:25;10.50;99.90
8338;DHT22;4206;48.634;9.516;2023-03-12T17:07:52;10.50;99.90
8338;DHT22;4206;48.634;9.516;2023-03-12T17:10:20;10.40;99.90
8338;DHT22;4206;48.634;9.516;2023-03-12T17:12:48;10.30;99.90
8338;DHT22;4206;48.634;9.516;2023-03-12T17:15:25;10.30;99.90
8338;DHT22;4206;48.634;9.516;2023-03-12T17:17:52;10.20;99.90
8338;DHT22;4206;48.634;9.516;2023-03-12T17:20:22;10.10;99.90
8338;DHT22;4206;48.634;9.516;2023-03-12T17:22:50;10.10;99.90
8338;DHT22;4206;48.634;9.516;2023-03-12T17:25:24;9.90;99.90
8338;DHT22;4206;48.634;9.516;2023-03-12T17:27:53;9.80;99.90
8338;DHT22;4206;48.634;9.516;2023-03-12T17:30:23;10.00;99.90
8338;DHT22;4206;48.634;9.516;2023-03-12T17:32:50;10.00;99.90
8338;DHT22;4206;48.634;9.516;2023-03-12T17:35:18;10.00;99.90
8338;DHT22;4206;48.634;9.516;2023-03-12T17:37:46;10.00;99.90
8338;DHT22;4206;48.634;9.516;2023-03-12T17:40:14;9.90;99.90
8338;DHT22;4206;48.634;9.516;2023-03-12T17:42:42;9.80;99.90
8338;DHT22;4206;48.634;9.516;2023-03-12T17:45:09;9.70;99.90
8338;DHT22;4206;48.634;9.516;2023-03-12T17:47:36;9.70;99.90
8338;DHT22;4206;48.634;9.516;2023-03-12T17:50:04;9.80;99.90
8338;DHT22;4206;48.634;9.516;2023-03-12T17:52:32;9.70;99.90
8338;DHT22;4206;48.634;9.516;2023-03-12T17:54:59;9.70;99.90
8338;DHT22;4206;48.634;9.516;2023-03-12T17:57:26;9.50;99.90
8338;DHT22;4206;48.634;9.516;2023-03-12T17:59:53;9.70;99.90
8338;DHT22;4206;48.634;9.516;2023-03-12T18:02:21;9.70;99.90
8338;DHT22;4206;48.634;9.516;2023-03-12T18:04:48;9.80;99.90
8338;DHT22;4206;48.634;9.516;2023-03-12T18:07:15;9.60;99.90
8338;DHT22;4206;48.634;9.516;2023-03-12T18:09:42;9.50;99.90
8338;DHT22;4206;48.634;9.516;2023-03-12T18:12:08;9.40;99.90
8338;DHT22;4206;48.634;9.516;2023-03-12T18:14:37;9.20;99.90
8338;DHT22;4206;48.634;9.516;2023-03-12T18:17:05;9.30;99.90
8338;DHT22;4206;48.634;9.516;2023-03-12T18:19:32;9.20;99.90
8338;DHT22;4206;48.634;9.516;2023-03-12T18:22:01;9.30;99.90
8338;DHT22;4206;48.634;9.516;2023-03-12T18:24:28;9.40;99.90
8338;DHT22;4206;48.634;9.516;2023-03-12T18:26:55;9.50;99.90
8338;DHT22;4206;48.634;9.516;2023-03-12T18:29:22;9.60;99.90
8338;DHT22;4206;48.634;9.516;2023-03-12T18:31:49;9.60;99.90
8338;DHT22;4206;48.634;9.516;2023-03-12T18:34:16;9.50;99.90
8338;DHT22;4206;48.634;9.516;2023-03-12T18:36:43;9.50;99.90
8338;DHT22;4206;48.634;9.516;2023-03-12T18:39:10;9.30;99.90
8338;DHT22;4206;48.634;9.516;2023-03-12T18:41:37;9.30;99.90
8338;DHT22;4206;48.634;9.516;2023-03-12T18:44:07;9.30;99.90
8338;DHT22;4206;48.634;9.516;2023-03-12T18:46:34;9.30;99.90
8338;DHT22;4206;48.634;9.516;2023-03-12T18:49:04;9.50;99.90
8338;DHT22;4206;48.634;9.516;2023-03-12T18:51:31;9.50;99.90
8338;DHT22;4206;48.634;9.516;2023-03-12T18:53:58;9.50;99.90
8338;DHT22;4206;48.634;9.516;2023-03-12T18:56:25;9.60;99.90
8338;DHT22;4206;48.634;9.516;2023-03-12T18:58:53;9.80;99.90
8338;DHT22;4206;48.634;9.516;2023-03-12T19:01:20;9.80;99.90
8338;DHT22;4206;48.634;9.516;2023-03-12T19:03:47;9.70;99.90
8338;DHT22;4206;48.634;9.516;2023-03-12T19:06:15;9.90;99.90
8338;DHT22;4206;48.634;9.516;2023-03-12T19:08:42;10.00;99.90